sensor_id;sensor_type;location;lat;lon;timestamp;temperature;humidity
59025;DHT22;44806;48.008;13.666;2022-10-04T00:01:54;10.70;99.90
59025;DHT22;44806;48.008;13.666;2022-10-04T00:04:26;10.70;99.90
59025;DHT22;44806;48.008;13.666;2022-10-04T00:06:58;10.70;99.90
59025;DHT22;44806;48.008;13.666;2022-10-04T00:09:31;10.70;99.90
59025;DHT22;44806;48.008;13.666;2022-10-04T00:12:00;10.70;99.90
59025;DHT22;44806;48.008;13.666;2022-10-04T00:14:30;10.60;99.90
59025;DHT22;44806;48.008;13.666;2022-10-04T00:16:59;10.70;99.90
59025;DHT22;44806;48.008;13.666;2022-10-04T00:19:42;10.60;99.90
59025;DHT22;44806;48.008;13.666;2022-10-04T00:22:19;10.60;99.90
59025;DHT22;44806;48.008;13.666;2022-10-04T00:25:16;10.60;99.90
59025;DHT22;44806;48.008;13.666;2022-10-04T00:30:43;10.50;99.90
59025;DHT22;44806;48.008;13.666;2022-10-04T00:33:10;10.60;99.90
59025;DHT22;44806;48.008;13.666;2022-10-04T00:35:58;10.50;99.90
59025;DHT22;44806;48.008;13.666;2022-10-04T00:38:25;10.50;99.90
59025;DHT22;44806;48.008;13.666;2022-10-04T00:41:02;10.40;99.90
59025;DHT22;44806;48.008;13.666;2022-10-04T00:43:35;10.40;99.90
59025;DHT22;44806;48.008;13.666;2022-10-04T00:46:06;10.40;99.90
59025;DHT22;44806;48.008;13.666;2022-10-04T00:48:39;10.40;99.90
59025;DHT22;44806;48.008;13.666;2022-10-04T00:51:20;10.30;99.90
59025;DHT22;44806;48.008;13.666;2022-10-04T00:54:03;10.30;99.90
59025;DHT22;44806;48.008;13.666;2022-10-04T00:56:39;10.40;99.90
59025;DHT22;44806;48.008;13.666;2022-10-04T00:59:27;10.30;99.90
59025;DHT22;44806;48.008;13.666;2022-10-04T01:01:58;10.30;99.90
59025;DHT22;44806;48.008;13.666;2022-10-04T01:04:36;10.20;99.90
59025;DHT22;44806;48.008;13.666;2022-10-04T01:07:05;10.20;99.90
59025;DHT22;44806;48.008;13.666;2022-10-04T01:09:37;10.20;99.90
59025;DHT22;44806;48.008;13.666;2022-10-04T01:12:13;10.20;99.90
59025;DHT22;44806;48.008;13.666;2022-10-04T01:14:48;10.10;99.90
59025;DHT22;44806;48.008;13.666;2022-10-04T01:17:18;10.10;99.90
59025;DHT22;44806;48.008;13.666;2022-10-04T01:19:51;10.10;99.90
59025;DHT22;44806;48.008;13.666;2022-10-04T01:22:45;10.00;99.90
59025;DHT22;44806;48.008;13.666;2022-10-04T01:25:42;10.00;99.90
59025;DHT22;44806;48.008;13.666;2022-10-04T01:28:09;10.00;99.90
59025;DHT22;44806;48.008;13.666;2022-10-04T01:30:36;9.90;99.90
59025;DHT22;44806;48.008;13.666;2022-10-04T01:33:06;9.90;99.90
59025;DHT22;44806;48.008;13.666;2022-10-04T01:35:33;9.80;99.90
59025;DHT22;44806;48.008;13.666;2022-10-04T01:38:04;9.80;99.90
59025;DHT22;44806;48.008;13.666;2022-10-04T01:40:32;9.80;99.90
59025;DHT22;44806;48.008;13.666;2022-10-04T01:43:03;9.70;99.90
59025;DHT22;44806;48.008;13.666;2022-10-04T01:45:35;9.70;99.90
59025;DHT22;44806;48.008;13.666;2022-10-04T01:48:05;9.60;99.90
59025;DHT22;44806;48.008;13.666;2022-10-04T01:50:38;9.60;99.90
59025;DHT22;44806;48.008;13.666;2022-10-04T01:53:12;9.60;99.90
59025;DHT22;44806;48.008;13.666;2022-10-04T01:55:43;9.50;99.90
59025;DHT22;44806;48.008;13.666;2022-10-04T01:58:15;9.50;99.90
59025;DHT22;44806;48.008;13.666;2022-10-04T02:00:48;9.40;99.90
59025;DHT22;44806;48.008;13.666;2022-10-04T02:03:20;9.40;99.90
59025;DHT22;44806;48.008;13.666;2022-10-04T02:05:51;9.40;99.90
59025;DHT22;44806;48.008;13.666;2022-10-04T02:08:26;9.30;99.90
59025;DHT22;44806;48.008;13.666;2022-10-04T02:10:55;9.20;99.90
59025;DHT22;44806;48.008;13.666;2022-10-04T02:13:23;9.20;99.90
59025;DHT22;44806;48.008;13.666;2022-10-04T02:15:52;9.20;99.90
59025;DHT22;44806;48.008;13.666;2022-10-04T02:18:20;9.20;99.90
59025;DHT22;44806;48.008;13.666;2022-10-04T02:20:49;9.20;99.90
59025;DHT22;44806;48.008;13.666;2022-10-04T02:23:18;9.20;99.90
59025;DHT22;44806;48.008;13.666;2022-10-04T02:25:47;9.20;99.90
59025;DHT22;44806;48.008;13.666;2022-10-04T02:28:15;9.10;99.90
59025;DHT22;44806;48.008;13.666;2022-10-04T02:30:46;9.20;99.90
59025;DHT22;44806;48.008;13.666;2022-10-04T02:33:38;9.10;99.90
59025;DHT22;44806;48.008;13.666;2022-10-04T02:36:06;9.00;99.90
59025;DHT22;44806;48.008;13.666;2022-10-04T02:38:36;9.00;99.90
59025;DHT22;44806;48.008;13.666;2022-10-04T02:41:13;9.00;99.90
59025;DHT22;44806;48.008;13.666;2022-10-04T02:43:49;8.90;99.90
59025;DHT22;44806;48.008;13.666;2022-10-04T02:46:24;8.90;99.90
59025;DHT22;44806;48.008;13.666;2022-10-04T02:48:56;8.90;99.90
59025;DHT22;44806;48.008;13.666;2022-10-04T02:51:27;8.80;99.90
59025;DHT22;44806;48.008;13.666;2022-10-04T02:54:02;8.80;99.90
59025;DHT22;44806;48.008;13.666;2022-10-04T02:56:33;8.80;99.90
59025;DHT22;44806;48.008;13.666;2022-10-04T02:59:03;8.80;99.90
59025;DHT22;44806;48.008;13.666;2022-10-04T03:01:40;8.80;99.90
59025;DHT22;44806;48.008;13.666;2022-10-04T03:04:10;8.80;99.90
59025;DHT22;44806;48.008;13.666;2022-10-04T03:06:40;8.80;99.90
59025;DHT22;44806;48.008;13.666;2022-10-04T03:09:08;8.80;99.90
59025;DHT22;44806;48.008;13.666;2022-10-04T03:11:38;8.80;99.90
59025;DHT22;44806;48.008;13.666;2022-10-04T03:14:09;8.70;99.90
59025;DHT22;44806;48.008;13.666;2022-10-04T03:16:42;8.70;99.90
59025;DHT22;44806;48.008;13.666;2022-10-04T03:19:11;8.70;99.90
59025;DHT22;44806;48.008;13.666;2022-10-04T03:21:41;8.70;99.90
59025;DHT22;44806;48.008;13.666;2022-10-04T03:24:13;8.70;99.90
59025;DHT22;44806;48.008;13.666;2022-10-04T03:26:45;8.70;99.90
59025;DHT22;44806;48.008;13.666;2022-10-04T03:29:15;8.60;99.90
59025;DHT22;44806;48.008;13.666;2022-10-04T03:31:45;8.60;99.90
59025;DHT22;44806;48.008;13.666;2022-10-04T03:34:15;8.50;99.90
59025;DHT22;44806;48.008;13.666;2022-10-04T03:36:43;8.50;99.90
59025;DHT22;44806;48.008;13.666;2022-10-04T03:39:17;8.50;99.90
59025;DHT22;44806;48.008;13.666;2022-10-04T03:41:47;8.50;99.90
59025;DHT22;44806;48.008;13.666;2022-10-04T03:44:16;8.50;99.90
59025;DHT22;44806;48.008;13.666;2022-10-04T03:46:43;8.50;99.90
59025;DHT22;44806;48.008;13.666;2022-10-04T03:49:14;8.40;99.90
59025;DHT22;44806;48.008;13.666;2022-10-04T03:51:45;8.40;99.90
59025;DHT22;44806;48.008;13.666;2022-10-04T03:54:17;8.40;99.90
59025;DHT22;44806;48.008;13.666;2022-10-04T03:56:47;8.30;99.90
59025;DHT22;44806;48.008;13.666;2022-10-04T03:59:16;8.30;99.90
59025;DHT22;44806;48.008;13.666;2022-10-04T04:01:47;8.30;99.90
59025;DHT22;44806;48.008;13.666;2022-10-04T04:04:22;8.30;99.90
59025;DHT22;44806;48.008;13.666;2022-10-04T04:06:55;8.30;99.90
59025;DHT22;44806;48.008;13.666;2022-10-04T04:09:37;8.30;99.90
59025;DHT22;44806;48.008;13.666;2022-10-04T04:12:14;8.20;99.90
59025;DHT22;44806;48.008;13.666;2022-10-04T04:14:43;8.20;99.90
59025;DHT22;44806;48.008;13.666;2022-10-04T04:17:38;8.20;99.90
59025;DHT22;44806;48.008;13.666;2022-10-04T04:20:17;8.20;99.90
59025;DHT22;44806;48.008;13.666;2022-10-04T04:22:54;8.10;99.90
59025;DHT22;44806;48.008;13.666;2022-10-04T04:25:22;8.10;99.90
59025;DHT22;44806;48.008;13.666;2022-10-04T04:27:51;8.00;99.90
59025;DHT22;44806;48.008;13.666;2022-10-04T04:30:20;8.00;99.90
59025;DHT22;44806;48.008;13.666;2022-10-04T04:32:50;8.00;99.90
59025;DHT22;44806;48.008;13.666;2022-10-04T04:35:23;8.00;99.90
59025;DHT22;44806;48.008;13.666;2022-10-04T04:38:20;8.00;99.90
59025;DHT22;44806;48.008;13.666;2022-10-04T04:40:51;8.00;99.90
59025;DHT22;44806;48.008;13.666;2022-10-04T04:43:25;8.00;99.90
59025;DHT22;44806;48.008;13.666;2022-10-04T04:45:53;7.90;99.90
59025;DHT22;44806;48.008;13.666;2022-10-04T04:48:22;7.90;99.90
59025;DHT22;44806;48.008;13.666;2022-10-04T04:50:53;7.80;99.90
59025;DHT22;44806;48.008;13.666;2022-10-04T04:53:22;7.80;99.90
59025;DHT22;44806;48.008;13.666;2022-10-04T04:55:51;7.80;99.90
59025;DHT22;44806;48.008;13.666;2022-10-04T04:58:26;7.70;99.90
59025;DHT22;44806;48.008;13.666;2022-10-04T05:00:56;7.70;99.90
59025;DHT22;44806;48.008;13.666;2022-10-04T05:03:23;7.70;99.90
59025;DHT22;44806;48.008;13.666;2022-10-04T05:05:52;7.70;99.90
59025;DHT22;44806;48.008;13.666;2022-10-04T05:08:21;7.70;99.90
59025;DHT22;44806;48.008;13.666;2022-10-04T05:10:50;7.70;99.90
59025;DHT22;44806;48.008;13.666;2022-10-04T05:13:24;7.70;99.90
59025;DHT22;44806;48.008;13.666;2022-10-04T05:15:56;7.70;99.90
59025;DHT22;44806;48.008;13.666;2022-10-04T05:18:28;7.70;99.90
59025;DHT22;44806;48.008;13.666;2022-10-04T05:21:01;7.70;99.90
59025;DHT22;44806;48.008;13.666;2022-10-04T05:23:29;7.70;99.90
59025;DHT22;44806;48.008;13.666;2022-10-04T05:25:57;7.70;99.90
59025;DHT22;44806;48.008;13.666;2022-10-04T05:28:28;7.70;99.90
59025;DHT22;44806;48.008;13.666;2022-10-04T05:31:09;7.70;99.90
59025;DHT22;44806;48.008;13.666;2022-10-04T05:33:45;7.70;99.90
59025;DHT22;44806;48.008;13.666;2022-10-04T05:36:40;7.70;99.90
59025;DHT22;44806;48.008;13.666;2022-10-04T05:39:19;7.80;99.90
59025;DHT22;44806;48.008;13.666;2022-10-04T05:41:54;7.80;99.90
59025;DHT22;44806;48.008;13.666;2022-10-04T05:44:26;7.80;99.90
59025;DHT22;44806;48.008;13.666;2022-10-04T05:46:58;7.80;99.90
59025;DHT22;44806;48.008;13.666;2022-10-04T05:49:29;7.80;99.90
59025;DHT22;44806;48.008;13.666;2022-10-04T05:51:59;7.80;99.90
59025;DHT22;44806;48.008;13.666;2022-10-04T05:54:29;7.80;99.90
59025;DHT22;44806;48.008;13.666;2022-10-04T05:57:25;7.80;99.90
59025;DHT22;44806;48.008;13.666;2022-10-04T06:00:15;7.80;99.90
59025;DHT22;44806;48.008;13.666;2022-10-04T06:02:53;7.80;99.90
59025;DHT22;44806;48.008;13.666;2022-10-04T06:05:27;7.80;99.90
59025;DHT22;44806;48.008;13.666;2022-10-04T06:08:06;7.90;99.90
59025;DHT22;44806;48.008;13.666;2022-10-04T06:10:49;8.00;99.90
59025;DHT22;44806;48.008;13.666;2022-10-04T06:13:29;8.00;99.90
59025;DHT22;44806;48.008;13.666;2022-10-04T06:16:14;8.00;99.90
59025;DHT22;44806;48.008;13.666;2022-10-04T06:19:04;8.10;99.90
59025;DHT22;44806;48.008;13.666;2022-10-04T06:21:38;8.20;99.90
59025;DHT22;44806;48.008;13.666;2022-10-04T06:24:11;8.20;99.90
59025;DHT22;44806;48.008;13.666;2022-10-04T06:26:43;8.30;99.90
59025;DHT22;44806;48.008;13.666;2022-10-04T06:29:15;8.30;99.90
59025;DHT22;44806;48.008;13.666;2022-10-04T06:32:08;8.30;99.90
59025;DHT22;44806;48.008;13.666;2022-10-04T06:44:15;8.60;99.90
59025;DHT22;44806;48.008;13.666;2022-10-04T06:46:49;8.60;99.90
59025;DHT22;44806;48.008;13.666;2022-10-04T06:49:35;8.60;99.90
59025;DHT22;44806;48.008;13.666;2022-10-04T06:52:24;8.70;99.90
59025;DHT22;44806;48.008;13.666;2022-10-04T06:58:01;8.80;99.90
59025;DHT22;44806;48.008;13.666;2022-10-04T07:00:39;8.90;99.90
59025;DHT22;44806;48.008;13.666;2022-10-04T07:03:11;8.90;99.90
59025;DHT22;44806;48.008;13.666;2022-10-04T07:05:44;9.00;99.90
59025;DHT22;44806;48.008;13.666;2022-10-04T07:08:18;9.00;99.90
59025;DHT22;44806;48.008;13.666;2022-10-04T07:10:59;9.10;99.90
59025;DHT22;44806;48.008;13.666;2022-10-04T07:13:36;9.10;99.90
59025;DHT22;44806;48.008;13.666;2022-10-04T07:16:08;9.10;99.90
59025;DHT22;44806;48.008;13.666;2022-10-04T07:18:45;9.20;99.90
59025;DHT22;44806;48.008;13.666;2022-10-04T07:21:16;9.20;99.90
59025;DHT22;44806;48.008;13.666;2022-10-04T07:23:48;9.20;99.90
59025;DHT22;44806;48.008;13.666;2022-10-04T07:26:23;9.30;99.90
59025;DHT22;44806;48.008;13.666;2022-10-04T07:28:53;9.30;99.90
59025;DHT22;44806;48.008;13.666;2022-10-04T07:31:40;9.40;99.90
59025;DHT22;44806;48.008;13.666;2022-10-04T07:34:13;9.50;99.90
59025;DHT22;44806;48.008;13.666;2022-10-04T07:36:47;9.60;99.90
59025;DHT22;44806;48.008;13.666;2022-10-04T07:39:17;9.70;99.90
59025;DHT22;44806;48.008;13.666;2022-10-04T07:41:49;9.70;99.90
59025;DHT22;44806;48.008;13.666;2022-10-04T07:44:25;9.80;99.90
59025;DHT22;44806;48.008;13.666;2022-10-04T07:46:59;9.90;99.90
59025;DHT22;44806;48.008;13.666;2022-10-04T07:49:26;10.00;99.90
59025;DHT22;44806;48.008;13.666;2022-10-04T07:52:04;10.00;99.90
59025;DHT22;44806;48.008;13.666;2022-10-04T07:54:41;10.10;99.90
59025;DHT22;44806;48.008;13.666;2022-10-04T07:57:15;10.20;99.90
59025;DHT22;44806;48.008;13.666;2022-10-04T07:59:51;10.20;99.90
59025;DHT22;44806;48.008;13.666;2022-10-04T08:02:29;10.30;99.90
59025;DHT22;44806;48.008;13.666;2022-10-04T08:05:10;10.50;99.90
59025;DHT22;44806;48.008;13.666;2022-10-04T08:07:51;10.60;99.90
59025;DHT22;44806;48.008;13.666;2022-10-04T08:10:28;10.80;99.90
59025;DHT22;44806;48.008;13.666;2022-10-04T08:13:02;11.00;99.90
59025;DHT22;44806;48.008;13.666;2022-10-04T08:15:36;11.00;99.90
59025;DHT22;44806;48.008;13.666;2022-10-04T08:18:20;11.10;99.90
59025;DHT22;44806;48.008;13.666;2022-10-04T08:20:55;11.20;99.90
59025;DHT22;44806;48.008;13.666;2022-10-04T08:23:39;11.30;99.90
59025;DHT22;44806;48.008;13.666;2022-10-04T08:26:22;11.40;99.90
59025;DHT22;44806;48.008;13.666;2022-10-04T08:29:00;11.50;99.90
59025;DHT22;44806;48.008;13.666;2022-10-04T08:31:56;11.60;99.90
59025;DHT22;44806;48.008;13.666;2022-10-04T08:34:43;11.80;99.90
59025;DHT22;44806;48.008;13.666;2022-10-04T08:37:20;11.90;99.90
59025;DHT22;44806;48.008;13.666;2022-10-04T08:40:15;11.90;99.90
59025;DHT22;44806;48.008;13.666;2022-10-04T08:43:07;12.00;99.90
59025;DHT22;44806;48.008;13.666;2022-10-04T08:46:12;12.10;99.90
59025;DHT22;44806;48.008;13.666;2022-10-04T08:49:23;12.30;99.90
59025;DHT22;44806;48.008;13.666;2022-10-04T08:52:32;12.50;99.90
59025;DHT22;44806;48.008;13.666;2022-10-04T08:55:38;12.50;99.90
59025;DHT22;44806;48.008;13.666;2022-10-04T08:58:15;12.70;99.90
59025;DHT22;44806;48.008;13.666;2022-10-04T09:00:56;12.80;99.90
59025;DHT22;44806;48.008;13.666;2022-10-04T09:09:52;13.10;99.90
59025;DHT22;44806;48.008;13.666;2022-10-04T09:12:44;13.20;99.90
59025;DHT22;44806;48.008;13.666;2022-10-04T09:15:28;13.30;99.90
59025;DHT22;44806;48.008;13.666;2022-10-04T09:18:16;13.50;99.90
59025;DHT22;44806;48.008;13.666;2022-10-04T09:20:54;13.60;99.90
59025;DHT22;44806;48.008;13.666;2022-10-04T09:23:56;13.60;99.90
59025;DHT22;44806;48.008;13.666;2022-10-04T09:26:33;13.80;99.90
59025;DHT22;44806;48.008;13.666;2022-10-04T09:29:41;13.90;99.90
59025;DHT22;44806;48.008;13.666;2022-10-04T09:38:38;13.90;99.90
59025;DHT22;44806;48.008;13.666;2022-10-04T09:41:33;14.00;99.90
59025;DHT22;44806;48.008;13.666;2022-10-04T09:47:31;14.20;99.90
59025;DHT22;44806;48.008;13.666;2022-10-04T09:50:40;14.20;99.90
59025;DHT22;44806;48.008;13.666;2022-10-04T09:53:31;14.30;99.90
59025;DHT22;44806;48.008;13.666;2022-10-04T09:56:26;14.30;99.90
59025;DHT22;44806;48.008;13.666;2022-10-04T11:01:27;16.90;88.60
59025;DHT22;44806;48.008;13.666;2022-10-04T11:04:23;16.90;90.80
59025;DHT22;44806;48.008;13.666;2022-10-04T11:13:09;17.30;90.60
59025;DHT22;44806;48.008;13.666;2022-10-04T11:16:14;17.30;85.70
59025;DHT22;44806;48.008;13.666;2022-10-04T11:22:15;17.40;86.30
59025;DHT22;44806;48.008;13.666;2022-10-04T11:25:16;17.50;84.40
59025;DHT22;44806;48.008;13.666;2022-10-04T11:27:54;17.60;87.90
59025;DHT22;44806;48.008;13.666;2022-10-04T11:30:38;17.50;84.60
59025;DHT22;44806;48.008;13.666;2022-10-04T11:33:57;17.50;85.10
59025;DHT22;44806;48.008;13.666;2022-10-04T11:36:40;17.50;82.60
59025;DHT22;44806;48.008;13.666;2022-10-04T11:42:22;17.60;84.40
59025;DHT22;44806;48.008;13.666;2022-10-04T11:47:59;17.70;83.90
59025;DHT22;44806;48.008;13.666;2022-10-04T11:50:36;17.60;81.00
59025;DHT22;44806;48.008;13.666;2022-10-04T11:53:28;17.50;78.60
59025;DHT22;44806;48.008;13.666;2022-10-04T11:56:29;17.40;85.80
59025;DHT22;44806;48.008;13.666;2022-10-04T12:02:16;17.60;83.10
59025;DHT22;44806;48.008;13.666;2022-10-04T12:07:59;17.80;85.30
59025;DHT22;44806;48.008;13.666;2022-10-04T12:10:35;17.80;87.10
59025;DHT22;44806;48.008;13.666;2022-10-04T12:13:31;18.00;85.40
59025;DHT22;44806;48.008;13.666;2022-10-04T12:19:47;18.10;82.10
59025;DHT22;44806;48.008;13.666;2022-10-04T12:22:41;18.10;82.20
59025;DHT22;44806;48.008;13.666;2022-10-04T12:25:46;18.00;82.60
59025;DHT22;44806;48.008;13.666;2022-10-04T12:28:51;17.90;80.60
59025;DHT22;44806;48.008;13.666;2022-10-04T12:31:27;17.90;84.30
59025;DHT22;44806;48.008;13.666;2022-10-04T12:34:09;18.00;81.60
59025;DHT22;44806;48.008;13.666;2022-10-04T12:36:54;17.90;84.00
59025;DHT22;44806;48.008;13.666;2022-10-04T12:39:43;17.90;81.20
59025;DHT22;44806;48.008;13.666;2022-10-04T12:42:26;17.90;78.80
59025;DHT22;44806;48.008;13.666;2022-10-04T12:45:18;17.90;80.20
59025;DHT22;44806;48.008;13.666;2022-10-04T12:48:01;17.70;77.00
59025;DHT22;44806;48.008;13.666;2022-10-04T12:50:45;17.60;76.40
59025;DHT22;44806;48.008;13.666;2022-10-04T12:53:22;17.60;78.60
59025;DHT22;44806;48.008;13.666;2022-10-04T12:56:15;17.50;74.60
59025;DHT22;44806;48.008;13.666;2022-10-04T13:01:55;17.60;78.50
59025;DHT22;44806;48.008;13.666;2022-10-04T13:04:31;17.70;80.20
59025;DHT22;44806;48.008;13.666;2022-10-04T13:07:12;17.70;79.30
59025;DHT22;44806;48.008;13.666;2022-10-04T13:09:49;17.60;77.40
59025;DHT22;44806;48.008;13.666;2022-10-04T13:12:29;17.60;75.40
59025;DHT22;44806;48.008;13.666;2022-10-04T13:15:22;17.50;76.60
59025;DHT22;44806;48.008;13.666;2022-10-04T13:18:00;17.50;78.20
59025;DHT22;44806;48.008;13.666;2022-10-04T13:20:39;17.50;76.80
59025;DHT22;44806;48.008;13.666;2022-10-04T13:23:21;17.50;78.40
59025;DHT22;44806;48.008;13.666;2022-10-04T13:26:12;17.40;80.00
59025;DHT22;44806;48.008;13.666;2022-10-04T13:28:47;17.50;80.90
59025;DHT22;44806;48.008;13.666;2022-10-04T13:31:21;17.50;78.00
59025;DHT22;44806;48.008;13.666;2022-10-04T13:33:55;17.40;76.30
59025;DHT22;44806;48.008;13.666;2022-10-04T13:36:30;17.40;76.00
59025;DHT22;44806;48.008;13.666;2022-10-04T13:39:28;17.40;78.60
59025;DHT22;44806;48.008;13.666;2022-10-04T13:42:07;17.30;75.70
59025;DHT22;44806;48.008;13.666;2022-10-04T13:45:21;17.30;75.10
59025;DHT22;44806;48.008;13.666;2022-10-04T13:48:11;17.20;81.00
59025;DHT22;44806;48.008;13.666;2022-10-04T13:51:02;17.20;78.90
59025;DHT22;44806;48.008;13.666;2022-10-04T13:53:36;17.30;80.30
59025;DHT22;44806;48.008;13.666;2022-10-04T13:56:47;17.30;78.70
59025;DHT22;44806;48.008;13.666;2022-10-04T13:59:23;17.30;77.10
59025;DHT22;44806;48.008;13.666;2022-10-04T14:05:45;17.20;78.00
59025;DHT22;44806;48.008;13.666;2022-10-04T14:15:02;17.10;76.60
59025;DHT22;44806;48.008;13.666;2022-10-04T14:17:52;17.10;76.90
59025;DHT22;44806;48.008;13.666;2022-10-04T14:20:52;17.20;76.60
59025;DHT22;44806;48.008;13.666;2022-10-04T14:23:39;17.10;75.60
59025;DHT22;44806;48.008;13.666;2022-10-04T14:26:47;17.00;76.30
59025;DHT22;44806;48.008;13.666;2022-10-04T14:29:54;17.10;76.80
59025;DHT22;44806;48.008;13.666;2022-10-04T14:35:31;17.00;76.00
59025;DHT22;44806;48.008;13.666;2022-10-04T14:38:41;17.10;76.60
59025;DHT22;44806;48.008;13.666;2022-10-04T14:41:48;17.10;76.20
59025;DHT22;44806;48.008;13.666;2022-10-04T14:44:48;17.10;82.10
59025;DHT22;44806;48.008;13.666;2022-10-04T14:47:37;17.00;77.10
59025;DHT22;44806;48.008;13.666;2022-10-04T14:50:22;17.00;77.80
59025;DHT22;44806;48.008;13.666;2022-10-04T14:53:04;17.00;77.50
59025;DHT22;44806;48.008;13.666;2022-10-04T14:58:45;17.00;78.90
59025;DHT22;44806;48.008;13.666;2022-10-04T15:01:20;17.00;78.60
59025;DHT22;44806;48.008;13.666;2022-10-04T15:04:09;17.00;77.40
59025;DHT22;44806;48.008;13.666;2022-10-04T15:06:42;17.00;79.80
59025;DHT22;44806;48.008;13.666;2022-10-04T15:09:25;16.90;77.10
59025;DHT22;44806;48.008;13.666;2022-10-04T15:11:57;16.90;77.80
59025;DHT22;44806;48.008;13.666;2022-10-04T15:14:33;16.90;76.00
59025;DHT22;44806;48.008;13.666;2022-10-04T15:17:09;16.90;78.20
59025;DHT22;44806;48.008;13.666;2022-10-04T15:19:54;16.90;80.60
59025;DHT22;44806;48.008;13.666;2022-10-04T15:22:26;16.90;80.00
59025;DHT22;44806;48.008;13.666;2022-10-04T15:24:56;16.90;80.00
59025;DHT22;44806;48.008;13.666;2022-10-04T15:27:50;16.90;80.10
59025;DHT22;44806;48.008;13.666;2022-10-04T15:30:24;16.90;81.00
59025;DHT22;44806;48.008;13.666;2022-10-04T15:33:07;16.90;79.30
59025;DHT22;44806;48.008;13.666;2022-10-04T15:35:48;16.90;79.90
59025;DHT22;44806;48.008;13.666;2022-10-04T15:38:23;16.90;77.70
59025;DHT22;44806;48.008;13.666;2022-10-04T15:41:00;16.90;80.10
59025;DHT22;44806;48.008;13.666;2022-10-04T15:43:34;16.90;79.10
59025;DHT22;44806;48.008;13.666;2022-10-04T15:46:29;16.90;79.60
59025;DHT22;44806;48.008;13.666;2022-10-04T15:49:25;16.90;80.40
59025;DHT22;44806;48.008;13.666;2022-10-04T15:55:20;16.80;81.70
59025;DHT22;44806;48.008;13.666;2022-10-04T16:01:47;16.60;82.90
59025;DHT22;44806;48.008;13.666;2022-10-04T16:04:54;16.50;81.80
59025;DHT22;44806;48.008;13.666;2022-10-04T16:07:49;16.50;83.70
59025;DHT22;44806;48.008;13.666;2022-10-04T16:10:23;16.40;85.60
59025;DHT22;44806;48.008;13.666;2022-10-04T16:13:16;16.40;87.00
59025;DHT22;44806;48.008;13.666;2022-10-04T16:16:23;16.30;86.60
59025;DHT22;44806;48.008;13.666;2022-10-04T16:19:05;16.20;86.40
59025;DHT22;44806;48.008;13.666;2022-10-04T16:21:41;16.00;85.40
59025;DHT22;44806;48.008;13.666;2022-10-04T16:24:45;16.00;88.30
59025;DHT22;44806;48.008;13.666;2022-10-04T16:30:18;15.80;88.20
59025;DHT22;44806;48.008;13.666;2022-10-04T16:33:04;15.70;89.30
59025;DHT22;44806;48.008;13.666;2022-10-04T16:35:40;15.50;90.20
59025;DHT22;44806;48.008;13.666;2022-10-04T16:38:21;15.50;90.00
59025;DHT22;44806;48.008;13.666;2022-10-04T16:41:04;15.50;89.70
59025;DHT22;44806;48.008;13.666;2022-10-04T16:43:36;15.40;90.50
59025;DHT22;44806;48.008;13.666;2022-10-04T16:46:11;15.40;90.50
59025;DHT22;44806;48.008;13.666;2022-10-04T16:48:51;15.30;90.90
59025;DHT22;44806;48.008;13.666;2022-10-04T16:51:44;15.30;91.80
59025;DHT22;44806;48.008;13.666;2022-10-04T16:57:21;15.10;93.20
59025;DHT22;44806;48.008;13.666;2022-10-04T16:59:52;15.00;92.60
59025;DHT22;44806;48.008;13.666;2022-10-04T17:02:46;14.90;92.80
59025;DHT22;44806;48.008;13.666;2022-10-04T17:05:45;14.80;93.40
59025;DHT22;44806;48.008;13.666;2022-10-04T17:08:23;14.70;94.00
59025;DHT22;44806;48.008;13.666;2022-10-04T17:11:16;14.60;94.00
59025;DHT22;44806;48.008;13.666;2022-10-04T17:14:00;14.50;93.40
59025;DHT22;44806;48.008;13.666;2022-10-04T17:16:35;14.50;93.60
59025;DHT22;44806;48.008;13.666;2022-10-04T17:19:16;14.30;93.30
59025;DHT22;44806;48.008;13.666;2022-10-04T17:22:00;14.30;94.90
59025;DHT22;44806;48.008;13.666;2022-10-04T17:24:38;14.20;95.60
59025;DHT22;44806;48.008;13.666;2022-10-04T17:27:23;14.10;95.60
59025;DHT22;44806;48.008;13.666;2022-10-04T17:30:09;14.00;95.60
59025;DHT22;44806;48.008;13.666;2022-10-04T17:32:48;13.90;96.30
59025;DHT22;44806;48.008;13.666;2022-10-04T17:38:25;13.70;97.20
59025;DHT22;44806;48.008;13.666;2022-10-04T17:40:58;13.70;98.00
59025;DHT22;44806;48.008;13.666;2022-10-04T17:43:36;13.60;97.90
59025;DHT22;44806;48.008;13.666;2022-10-04T17:46:15;13.50;98.70
59025;DHT22;44806;48.008;13.666;2022-10-04T17:48:46;13.40;98.40
59025;DHT22;44806;48.008;13.666;2022-10-04T17:51:39;13.40;98.10
59025;DHT22;44806;48.008;13.666;2022-10-04T17:54:30;13.30;98.90
59025;DHT22;44806;48.008;13.666;2022-10-04T17:57:22;13.20;98.10
59025;DHT22;44806;48.008;13.666;2022-10-04T17:59:55;13.10;98.20
59025;DHT22;44806;48.008;13.666;2022-10-04T18:02:41;13.10;98.20
59025;DHT22;44806;48.008;13.666;2022-10-04T18:05:15;13.00;98.40
59025;DHT22;44806;48.008;13.666;2022-10-04T18:07:47;12.90;99.50
59025;DHT22;44806;48.008;13.666;2022-10-04T18:10:22;12.90;99.70
59025;DHT22;44806;48.008;13.666;2022-10-04T18:12:57;12.80;99.90
59025;DHT22;44806;48.008;13.666;2022-10-04T18:15:29;12.80;99.60
59025;DHT22;44806;48.008;13.666;2022-10-04T18:18:10;12.70;99.90
59025;DHT22;44806;48.008;13.666;2022-10-04T18:21:02;12.60;99.90
59025;DHT22;44806;48.008;13.666;2022-10-04T18:23:32;12.60;99.90
59025;DHT22;44806;48.008;13.666;2022-10-04T18:26:05;12.50;99.90
59025;DHT22;44806;48.008;13.666;2022-10-04T18:28:34;12.40;99.90
59025;DHT22;44806;48.008;13.666;2022-10-04T18:31:28;12.40;99.90
59025;DHT22;44806;48.008;13.666;2022-10-04T18:33:57;12.30;99.90
59025;DHT22;44806;48.008;13.666;2022-10-04T18:36:28;12.30;99.90
59025;DHT22;44806;48.008;13.666;2022-10-04T18:39:17;12.20;99.90
59025;DHT22;44806;48.008;13.666;2022-10-04T18:41:54;12.10;99.90
59025;DHT22;44806;48.008;13.666;2022-10-04T18:44:26;12.10;99.90
59025;DHT22;44806;48.008;13.666;2022-10-04T18:46:56;12.00;99.90
59025;DHT22;44806;48.008;13.666;2022-10-04T18:49:26;11.90;99.90
59025;DHT22;44806;48.008;13.666;2022-10-04T18:52:11;11.90;99.90
59025;DHT22;44806;48.008;13.666;2022-10-04T18:54:56;11.90;99.90
59025;DHT22;44806;48.008;13.666;2022-10-04T18:57:30;11.80;99.90
59025;DHT22;44806;48.008;13.666;2022-10-04T19:00:05;11.70;99.90
59025;DHT22;44806;48.008;13.666;2022-10-04T19:03:09;11.60;99.90
59025;DHT22;44806;48.008;13.666;2022-10-04T19:05:48;11.60;99.90
59025;DHT22;44806;48.008;13.666;2022-10-04T19:08:35;11.60;99.90
59025;DHT22;44806;48.008;13.666;2022-10-04T19:11:07;11.50;99.90
59025;DHT22;44806;48.008;13.666;2022-10-04T19:13:43;11.40;99.90